sensor_id;sensor_type;location;lat;lon;timestamp;temperature;humidity
29547;DHT22;40782;47.264;11.330;2022-11-14T00:00:09;4.90;1.00
29547;DHT22;40782;47.264;11.330;2022-11-14T00:02:36;4.90;1.00
29547;DHT22;40782;47.264;11.330;2022-11-14T00:05:05;4.90;1.00
29547;DHT22;40782;47.264;11.330;2022-11-14T00:07:34;4.90;1.00
29547;DHT22;40782;47.264;11.330;2022-11-14T00:10:01;4.90;1.00
29547;DHT22;40782;47.264;11.330;2022-11-14T00:12:29;4.90;1.00
29547;DHT22;40782;47.264;11.330;2022-11-14T00:14:56;4.90;1.00
29547;DHT22;40782;47.264;11.330;2022-11-14T00:17:23;4.90;1.00
29547;DHT22;40782;47.264;11.330;2022-11-14T00:19:50;4.90;1.00
29547;DHT22;40782;47.264;11.330;2022-11-14T00:22:17;4.80;1.00
29547;DHT22;40782;47.264;11.330;2022-11-14T00:24:46;4.80;1.00
29547;DHT22;40782;47.264;11.330;2022-11-14T00:27:13;4.80;1.00
29547;DHT22;40782;47.264;11.330;2022-11-14T00:29:40;4.90;1.00
29547;DHT22;40782;47.264;11.330;2022-11-14T00:32:07;4.90;1.00
29547;DHT22;40782;47.264;11.330;2022-11-14T00:34:35;4.90;1.00
29547;DHT22;40782;47.264;11.330;2022-11-14T00:37:02;4.90;1.00
29547;DHT22;40782;47.264;11.330;2022-11-14T00:39:29;5.00;1.00
29547;DHT22;40782;47.264;11.330;2022-11-14T00:41:58;5.00;1.00
29547;DHT22;40782;47.264;11.330;2022-11-14T00:44:25;5.00;1.00
29547;DHT22;40782;47.264;11.330;2022-11-14T00:46:52;5.10;1.00
29547;DHT22;40782;47.264;11.330;2022-11-14T00:49:19;5.10;1.00
29547;DHT22;40782;47.264;11.330;2022-11-14T00:51:46;5.10;1.00
29547;DHT22;40782;47.264;11.330;2022-11-14T00:54:13;5.10;1.00
29547;DHT22;40782;47.264;11.330;2022-11-14T00:56:40;5.10;1.00
29547;DHT22;40782;47.264;11.330;2022-11-14T00:59:09;5.20;1.00
29547;DHT22;40782;47.264;11.330;2022-11-14T01:01:36;5.20;1.00
29547;DHT22;40782;47.264;11.330;2022-11-14T01:04:03;5.20;1.00
29547;DHT22;40782;47.264;11.330;2022-11-14T01:06:30;5.20;1.00
29547;DHT22;40782;47.264;11.330;2022-11-14T01:08:57;5.20;1.00
29547;DHT22;40782;47.264;11.330;2022-11-14T01:11:25;5.20;1.00
29547;DHT22;40782;47.264;11.330;2022-11-14T01:13:52;5.30;1.00
29547;DHT22;40782;47.264;11.330;2022-11-14T01:16:20;5.30;1.00
29547;DHT22;40782;47.264;11.330;2022-11-14T01:18:48;5.30;1.00
29547;DHT22;40782;47.264;11.330;2022-11-14T01:21:15;5.30;1.00
29547;DHT22;40782;47.264;11.330;2022-11-14T01:23:42;5.30;1.00
29547;DHT22;40782;47.264;11.330;2022-11-14T01:26:12;5.20;1.00
29547;DHT22;40782;47.264;11.330;2022-11-14T01:28:39;5.20;1.00
29547;DHT22;40782;47.264;11.330;2022-11-14T01:31:09;5.20;1.00
29547;DHT22;40782;47.264;11.330;2022-11-14T01:33:38;5.10;1.00
29547;DHT22;40782;47.264;11.330;2022-11-14T01:36:06;5.10;1.00
29547;DHT22;40782;47.264;11.330;2022-11-14T01:38:33;5.10;1.00
29547;DHT22;40782;47.264;11.330;2022-11-14T01:41:01;5.10;1.00
29547;DHT22;40782;47.264;11.330;2022-11-14T01:43:30;5.00;1.00
29547;DHT22;40782;47.264;11.330;2022-11-14T01:46:00;5.10;1.00
29547;DHT22;40782;47.264;11.330;2022-11-14T01:48:33;5.00;1.00
29547;DHT22;40782;47.264;11.330;2022-11-14T01:51:07;5.10;1.00
29547;DHT22;40782;47.264;11.330;2022-11-14T01:53:39;5.10;1.00
29547;DHT22;40782;47.264;11.330;2022-11-14T01:56:08;5.00;1.00
29547;DHT22;40782;47.264;11.330;2022-11-14T01:58:39;5.00;1.00
29547;DHT22;40782;47.264;11.330;2022-11-14T02:01:07;5.00;1.00
29547;DHT22;40782;47.264;11.330;2022-11-14T02:03:38;5.00;1.00
29547;DHT22;40782;47.264;11.330;2022-11-14T02:06:09;5.00;1.00
29547;DHT22;40782;47.264;11.330;2022-11-14T02:08:39;5.10;1.00
29547;DHT22;40782;47.264;11.330;2022-11-14T02:11:09;5.10;1.00
29547;DHT22;40782;47.264;11.330;2022-11-14T02:13:37;5.10;1.00
29547;DHT22;40782;47.264;11.330;2022-11-14T02:16:05;5.10;1.00
29547;DHT22;40782;47.264;11.330;2022-11-14T02:18:32;5.10;1.00
29547;DHT22;40782;47.264;11.330;2022-11-14T02:21:01;5.10;1.00
29547;DHT22;40782;47.264;11.330;2022-11-14T02:23:29;5.10;1.00
29547;DHT22;40782;47.264;11.330;2022-11-14T02:25:57;5.10;1.00
29547;DHT22;40782;47.264;11.330;2022-11-14T02:28:25;5.10;1.00
29547;DHT22;40782;47.264;11.330;2022-11-14T02:30:52;5.10;1.00
29547;DHT22;40782;47.264;11.330;2022-11-14T02:33:20;5.10;1.00
29547;DHT22;40782;47.264;11.330;2022-11-14T02:35:47;5.10;1.00
29547;DHT22;40782;47.264;11.330;2022-11-14T02:38:15;5.10;1.00
29547;DHT22;40782;47.264;11.330;2022-11-14T02:40:43;5.00;1.00
29547;DHT22;40782;47.264;11.330;2022-11-14T02:43:10;5.00;1.00
29547;DHT22;40782;47.264;11.330;2022-11-14T02:45:37;5.00;1.00
29547;DHT22;40782;47.264;11.330;2022-11-14T02:48:04;5.10;1.00
29547;DHT22;40782;47.264;11.330;2022-11-14T02:50:32;5.10;1.00
29547;DHT22;40782;47.264;11.330;2022-11-14T02:52:59;5.10;1.00
29547;DHT22;40782;47.264;11.330;2022-11-14T02:55:28;5.10;1.00
29547;DHT22;40782;47.264;11.330;2022-11-14T02:57:55;5.10;1.00
29547;DHT22;40782;47.264;11.330;2022-11-14T03:00:22;5.10;1.00
29547;DHT22;40782;47.264;11.330;2022-11-14T03:02:49;5.10;1.00
29547;DHT22;40782;47.264;11.330;2022-11-14T03:05:18;5.10;1.00
29547;DHT22;40782;47.264;11.330;2022-11-14T03:07:45;5.10;1.00
29547;DHT22;40782;47.264;11.330;2022-11-14T03:10:12;5.10;1.00
29547;DHT22;40782;47.264;11.330;2022-11-14T03:12:41;5.10;1.00
29547;DHT22;40782;47.264;11.330;2022-11-14T03:15:09;5.10;1.00
29547;DHT22;40782;47.264;11.330;2022-11-14T03:17:36;5.10;1.00
29547;DHT22;40782;47.264;11.330;2022-11-14T03:20:04;5.00;1.00
29547;DHT22;40782;47.264;11.330;2022-11-14T03:22:31;5.00;1.00
29547;DHT22;40782;47.264;11.330;2022-11-14T03:24:59;5.00;1.00
29547;DHT22;40782;47.264;11.330;2022-11-14T03:27:26;5.00;1.00
29547;DHT22;40782;47.264;11.330;2022-11-14T03:29:55;5.00;1.00
29547;DHT22;40782;47.264;11.330;2022-11-14T03:32:22;5.00;1.00
29547;DHT22;40782;47.264;11.330;2022-11-14T03:34:49;5.00;1.00
29547;DHT22;40782;47.264;11.330;2022-11-14T03:37:16;5.00;1.00
29547;DHT22;40782;47.264;11.330;2022-11-14T03:39:43;5.00;1.00
29547;DHT22;40782;47.264;11.330;2022-11-14T03:42:10;4.90;1.00
29547;DHT22;40782;47.264;11.330;2022-11-14T03:44:38;4.90;1.00
29547;DHT22;40782;47.264;11.330;2022-11-14T03:47:06;4.90;1.00
29547;DHT22;40782;47.264;11.330;2022-11-14T03:49:33;4.90;1.00
29547;DHT22;40782;47.264;11.330;2022-11-14T03:52:01;4.90;1.00
29547;DHT22;40782;47.264;11.330;2022-11-14T03:54:28;4.90;1.00
29547;DHT22;40782;47.264;11.330;2022-11-14T03:56:55;4.90;1.00
29547;DHT22;40782;47.264;11.330;2022-11-14T03:59:22;4.90;1.00
29547;DHT22;40782;47.264;11.330;2022-11-14T04:01:49;4.90;1.00
29547;DHT22;40782;47.264;11.330;2022-11-14T04:04:18;4.90;1.00
29547;DHT22;40782;47.264;11.330;2022-11-14T04:06:45;4.90;1.00
29547;DHT22;40782;47.264;11.330;2022-11-14T04:09:12;5.00;1.00
29547;DHT22;40782;47.264;11.330;2022-11-14T04:11:39;5.00;1.00
29547;DHT22;40782;47.264;11.330;2022-11-14T04:14:06;5.00;1.00
29547;DHT22;40782;47.264;11.330;2022-11-14T04:16:33;5.00;1.00
29547;DHT22;40782;47.264;11.330;2022-11-14T04:19:01;5.00;1.00
29547;DHT22;40782;47.264;11.330;2022-11-14T04:21:29;5.00;1.00
29547;DHT22;40782;47.264;11.330;2022-11-14T04:23:56;5.10;1.00
29547;DHT22;40782;47.264;11.330;2022-11-14T04:26:23;5.10;1.00
29547;DHT22;40782;47.264;11.330;2022-11-14T04:28:51;5.00;1.00
29547;DHT22;40782;47.264;11.330;2022-11-14T04:31:18;5.10;1.00
29547;DHT22;40782;47.264;11.330;2022-11-14T04:33:45;5.10;1.00
29547;DHT22;40782;47.264;11.330;2022-11-14T04:36:12;5.00;1.00
29547;DHT22;40782;47.264;11.330;2022-11-14T04:38:40;5.10;1.00
29547;DHT22;40782;47.264;11.330;2022-11-14T04:41:07;5.00;1.00
29547;DHT22;40782;47.264;11.330;2022-11-14T04:43:35;5.00;1.00
29547;DHT22;40782;47.264;11.330;2022-11-14T04:46:02;5.00;1.00
29547;DHT22;40782;47.264;11.330;2022-11-14T04:48:29;5.00;1.00
29547;DHT22;40782;47.264;11.330;2022-11-14T04:50:56;5.10;1.00
29547;DHT22;40782;47.264;11.330;2022-11-14T04:53:24;5.10;1.00
29547;DHT22;40782;47.264;11.330;2022-11-14T04:55:52;5.10;1.00
29547;DHT22;40782;47.264;11.330;2022-11-14T04:58:19;5.10;1.00
29547;DHT22;40782;47.264;11.330;2022-11-14T05:00:46;5.10;1.00
29547;DHT22;40782;47.264;11.330;2022-11-14T05:03:13;5.10;1.00
29547;DHT22;40782;47.264;11.330;2022-11-14T05:05:41;5.10;1.00
29547;DHT22;40782;47.264;11.330;2022-11-14T05:08:08;5.10;1.00
29547;DHT22;40782;47.264;11.330;2022-11-14T05:10:35;5.10;1.00
29547;DHT22;40782;47.264;11.330;2022-11-14T05:13:03;5.10;1.00
29547;DHT22;40782;47.264;11.330;2022-11-14T05:15:31;5.10;1.00
29547;DHT22;40782;47.264;11.330;2022-11-14T05:17:58;5.10;1.00
29547;DHT22;40782;47.264;11.330;2022-11-14T05:20:25;5.10;1.00
29547;DHT22;40782;47.264;11.330;2022-11-14T05:22:52;5.10;1.00
29547;DHT22;40782;47.264;11.330;2022-11-14T05:25:21;5.10;1.00
29547;DHT22;40782;47.264;11.330;2022-11-14T05:27:48;5.10;1.00
29547;DHT22;40782;47.264;11.330;2022-11-14T05:30:17;5.10;1.00
29547;DHT22;40782;47.264;11.330;2022-11-14T05:32:44;5.10;1.00
29547;DHT22;40782;47.264;11.330;2022-11-14T05:35:11;5.10;1.00
29547;DHT22;40782;47.264;11.330;2022-11-14T05:37:39;5.00;1.00
29547;DHT22;40782;47.264;11.330;2022-11-14T05:40:07;5.00;1.00
29547;DHT22;40782;47.264;11.330;2022-11-14T05:42:34;5.00;1.00
29547;DHT22;40782;47.264;11.330;2022-11-14T05:45:02;5.00;1.00
29547;DHT22;40782;47.264;11.330;2022-11-14T05:47:31;5.00;1.00
29547;DHT22;40782;47.264;11.330;2022-11-14T05:49:58;5.10;1.00
29547;DHT22;40782;47.264;11.330;2022-11-14T05:52:25;5.10;1.00
29547;DHT22;40782;47.264;11.330;2022-11-14T05:54:52;5.10;1.00
29547;DHT22;40782;47.264;11.330;2022-11-14T05:57:19;5.10;1.00
29547;DHT22;40782;47.264;11.330;2022-11-14T05:59:46;5.10;1.00
29547;DHT22;40782;47.264;11.330;2022-11-14T06:02:13;5.20;1.00
29547;DHT22;40782;47.264;11.330;2022-11-14T06:04:42;5.20;1.00
29547;DHT22;40782;47.264;11.330;2022-11-14T06:07:10;5.20;1.00
29547;DHT22;40782;47.264;11.330;2022-11-14T06:09:37;5.30;1.00
29547;DHT22;40782;47.264;11.330;2022-11-14T06:12:04;5.30;1.00
29547;DHT22;40782;47.264;11.330;2022-11-14T06:14:32;5.30;1.00
29547;DHT22;40782;47.264;11.330;2022-11-14T06:16:59;5.20;1.00
29547;DHT22;40782;47.264;11.330;2022-11-14T06:19:26;5.20;1.00
29547;DHT22;40782;47.264;11.330;2022-11-14T06:21:55;5.20;1.00
29547;DHT22;40782;47.264;11.330;2022-11-14T06:24:22;5.10;1.00
29547;DHT22;40782;47.264;11.330;2022-11-14T06:26:49;5.10;1.00
29547;DHT22;40782;47.264;11.330;2022-11-14T06:29:16;5.00;1.00
29547;DHT22;40782;47.264;11.330;2022-11-14T06:31:44;5.00;1.00
29547;DHT22;40782;47.264;11.330;2022-11-14T06:34:11;5.00;1.00
29547;DHT22;40782;47.264;11.330;2022-11-14T06:36:38;5.00;1.00
29547;DHT22;40782;47.264;11.330;2022-11-14T06:39:07;5.00;1.00
29547;DHT22;40782;47.264;11.330;2022-11-14T06:41:34;5.00;1.00
29547;DHT22;40782;47.264;11.330;2022-11-14T06:44:01;5.00;1.00
29547;DHT22;40782;47.264;11.330;2022-11-14T06:46:28;5.00;1.00
29547;DHT22;40782;47.264;11.330;2022-11-14T06:48:56;5.00;1.00
29547;DHT22;40782;47.264;11.330;2022-11-14T06:51:23;5.00;1.00
29547;DHT22;40782;47.264;11.330;2022-11-14T06:53:50;5.00;1.00
29547;DHT22;40782;47.264;11.330;2022-11-14T06:56:19;5.00;1.00
29547;DHT22;40782;47.264;11.330;2022-11-14T06:58:47;5.00;1.00
29547;DHT22;40782;47.264;11.330;2022-11-14T07:01:16;5.00;1.00
29547;DHT22;40782;47.264;11.330;2022-11-14T07:03:44;5.00;1.00
29547;DHT22;40782;47.264;11.330;2022-11-14T07:06:13;5.00;1.00
29547;DHT22;40782;47.264;11.330;2022-11-14T07:08:40;5.00;1.00
29547;DHT22;40782;47.264;11.330;2022-11-14T07:11:10;5.00;1.00
29547;DHT22;40782;47.264;11.330;2022-11-14T07:13:39;5.10;1.00
29547;DHT22;40782;47.264;11.330;2022-11-14T07:16:06;5.10;1.00
29547;DHT22;40782;47.264;11.330;2022-11-14T07:18:33;5.10;1.00
29547;DHT22;40782;47.264;11.330;2022-11-14T07:21:02;5.10;1.00
29547;DHT22;40782;47.264;11.330;2022-11-14T07:23:30;5.20;1.00
29547;DHT22;40782;47.264;11.330;2022-11-14T07:26:00;5.30;1.00
29547;DHT22;40782;47.264;11.330;2022-11-14T07:28:29;5.30;1.00
29547;DHT22;40782;47.264;11.330;2022-11-14T07:30:58;5.40;1.00
29547;DHT22;40782;47.264;11.330;2022-11-14T07:33:26;5.50;1.00
29547;DHT22;40782;47.264;11.330;2022-11-14T07:35:53;5.50;1.00
29547;DHT22;40782;47.264;11.330;2022-11-14T07:38:20;5.60;1.00
29547;DHT22;40782;47.264;11.330;2022-11-14T07:40:55;5.70;1.00
29547;DHT22;40782;47.264;11.330;2022-11-14T07:43:23;5.70;1.00
29547;DHT22;40782;47.264;11.330;2022-11-14T07:45:50;5.70;1.00
29547;DHT22;40782;47.264;11.330;2022-11-14T07:48:19;5.70;1.00
29547;DHT22;40782;47.264;11.330;2022-11-14T07:50:47;5.80;1.00
29547;DHT22;40782;47.264;11.330;2022-11-14T07:53:14;5.80;1.00
29547;DHT22;40782;47.264;11.330;2022-11-14T07:55:43;5.80;1.00
29547;DHT22;40782;47.264;11.330;2022-11-14T07:58:10;5.80;1.00
29547;DHT22;40782;47.264;11.330;2022-11-14T08:00:38;5.80;1.00
29547;DHT22;40782;47.264;11.330;2022-11-14T08:03:05;5.80;1.00
29547;DHT22;40782;47.264;11.330;2022-11-14T08:05:34;5.80;1.00
29547;DHT22;40782;47.264;11.330;2022-11-14T08:08:02;5.90;1.00
29547;DHT22;40782;47.264;11.330;2022-11-14T08:10:29;6.00;1.00
29547;DHT22;40782;47.264;11.330;2022-11-14T08:12:57;6.00;1.00
29547;DHT22;40782;47.264;11.330;2022-11-14T08:15:26;6.10;1.00
29547;DHT22;40782;47.264;11.330;2022-11-14T08:17:56;6.10;1.00
29547;DHT22;40782;47.264;11.330;2022-11-14T08:20:25;6.10;1.00
29547;DHT22;40782;47.264;11.330;2022-11-14T08:22:56;6.20;1.00
29547;DHT22;40782;47.264;11.330;2022-11-14T08:25:27;6.20;1.00
29547;DHT22;40782;47.264;11.330;2022-11-14T08:27:54;6.20;1.00
29547;DHT22;40782;47.264;11.330;2022-11-14T08:30:21;6.20;1.00
29547;DHT22;40782;47.264;11.330;2022-11-14T08:32:49;6.30;1.00
29547;DHT22;40782;47.264;11.330;2022-11-14T08:35:16;6.30;1.00
29547;DHT22;40782;47.264;11.330;2022-11-14T08:37:44;6.30;1.00
29547;DHT22;40782;47.264;11.330;2022-11-14T08:40:13;6.30;1.00
29547;DHT22;40782;47.264;11.330;2022-11-14T08:42:40;6.40;1.00
29547;DHT22;40782;47.264;11.330;2022-11-14T08:45:08;6.50;1.00
29547;DHT22;40782;47.264;11.330;2022-11-14T08:47:35;6.60;1.00
29547;DHT22;40782;47.264;11.330;2022-11-14T08:50:03;6.70;1.00
29547;DHT22;40782;47.264;11.330;2022-11-14T08:52:30;6.80;1.00
29547;DHT22;40782;47.264;11.330;2022-11-14T08:54:57;6.80;1.00
29547;DHT22;40782;47.264;11.330;2022-11-14T08:57:26;6.80;1.00
29547;DHT22;40782;47.264;11.330;2022-11-14T08:59:53;6.80;1.00
29547;DHT22;40782;47.264;11.330;2022-11-14T09:02:20;7.00;1.00
29547;DHT22;40782;47.264;11.330;2022-11-14T09:04:47;7.10;1.00
29547;DHT22;40782;47.264;11.330;2022-11-14T09:07:14;7.30;1.00
29547;DHT22;40782;47.264;11.330;2022-11-14T09:09:42;7.50;1.00
29547;DHT22;40782;47.264;11.330;2022-11-14T09:12:09;7.80;1.00
29547;DHT22;40782;47.264;11.330;2022-11-14T09:14:37;8.00;1.00
29547;DHT22;40782;47.264;11.330;2022-11-14T09:17:05;8.20;1.00
29547;DHT22;40782;47.264;11.330;2022-11-14T09:19:32;8.50;1.00
29547;DHT22;40782;47.264;11.330;2022-11-14T09:21:59;8.70;1.00
29547;DHT22;40782;47.264;11.330;2022-11-14T09:24:26;8.90;1.00
29547;DHT22;40782;47.264;11.330;2022-11-14T09:26:53;9.00;1.00
29547;DHT22;40782;47.264;11.330;2022-11-14T09:29:20;9.20;1.00
29547;DHT22;40782;47.264;11.330;2022-11-14T09:31:50;9.30;1.00
29547;DHT22;40782;47.264;11.330;2022-11-14T09:34:17;9.60;1.00
29547;DHT22;40782;47.264;11.330;2022-11-14T09:36:44;9.90;1.00
29547;DHT22;40782;47.264;11.330;2022-11-14T09:39:12;10.20;99.90
29547;DHT22;40782;47.264;11.330;2022-11-14T09:41:53;10.30;99.90
29547;DHT22;40782;47.264;11.330;2022-11-14T09:44:36;10.60;99.90
29547;DHT22;40782;47.264;11.330;2022-11-14T09:47:08;11.00;99.90
29547;DHT22;40782;47.264;11.330;2022-11-14T09:49:39;11.40;99.90
29547;DHT22;40782;47.264;11.330;2022-11-14T09:52:14;11.80;99.90
29547;DHT22;40782;47.264;11.330;2022-11-14T09:54:46;11.80;99.90
29547;DHT22;40782;47.264;11.330;2022-11-14T09:57:17;11.70;99.90
29547;DHT22;40782;47.264;11.330;2022-11-14T09:59:48;12.00;99.90
29547;DHT22;40782;47.264;11.330;2022-11-14T10:02:29;12.00;99.90
29547;DHT22;40782;47.264;11.330;2022-11-14T10:05:08;12.30;99.90
29547;DHT22;40782;47.264;11.330;2022-11-14T10:07:48;12.70;99.90
29547;DHT22;40782;47.264;11.330;2022-11-14T10:10:27;13.10;99.90
29547;DHT22;40782;47.264;11.330;2022-11-14T10:13:07;13.40;99.90
29547;DHT22;40782;47.264;11.330;2022-11-14T10:15:46;13.20;99.90
29547;DHT22;40782;47.264;11.330;2022-11-14T10:18:34;13.00;99.90
29547;DHT22;40782;47.264;11.330;2022-11-14T10:21:12;12.90;99.90
29547;DHT22;40782;47.264;11.330;2022-11-14T10:23:48;12.70;99.90
29547;DHT22;40782;47.264;11.330;2022-11-14T10:26:22;12.70;99.90
29547;DHT22;40782;47.264;11.330;2022-11-14T10:29:04;12.50;99.90
29547;DHT22;40782;47.264;11.330;2022-11-14T10:31:41;12.40;99.90
29547;DHT22;40782;47.264;11.330;2022-11-14T10:34:14;12.30;99.90
29547;DHT22;40782;47.264;11.330;2022-11-14T10:36:55;12.50;99.90
29547;DHT22;40782;47.264;11.330;2022-11-14T10:39:28;13.00;99.90
29547;DHT22;40782;47.264;11.330;2022-11-14T10:42:02;13.70;99.90
29547;DHT22;40782;47.264;11.330;2022-11-14T10:44:33;13.90;99.90
29547;DHT22;40782;47.264;11.330;2022-11-14T10:47:05;14.30;99.90
29547;DHT22;40782;47.264;11.330;2022-11-14T10:49:36;14.80;99.90
29547;DHT22;40782;47.264;11.330;2022-11-14T10:52:08;15.50;99.90
29547;DHT22;40782;47.264;11.330;2022-11-14T10:54:40;16.20;99.90
29547;DHT22;40782;47.264;11.330;2022-11-14T10:57:16;17.10;99.90
29547;DHT22;40782;47.264;11.330;2022-11-14T10:59:43;17.60;99.90
29547;DHT22;40782;47.264;11.330;2022-11-14T11:02:11;18.10;99.90
29547;DHT22;40782;47.264;11.330;2022-11-14T11:04:40;18.70;99.90
29547;DHT22;40782;47.264;11.330;2022-11-14T11:07:22;19.40;99.90
29547;DHT22;40782;47.264;11.330;2022-11-14T11:10:19;20.10;99.90
29547;DHT22;40782;47.264;11.330;2022-11-14T11:13:04;20.70;99.90
29547;DHT22;40782;47.264;11.330;2022-11-14T11:15:38;21.10;99.90
29547;DHT22;40782;47.264;11.330;2022-11-14T11:18:24;21.50;99.90
29547;DHT22;40782;47.264;11.330;2022-11-14T11:21:04;21.80;99.90
29547;DHT22;40782;47.264;11.330;2022-11-14T11:23:32;22.00;99.90
29547;DHT22;40782;47.264;11.330;2022-11-14T11:26:01;22.20;99.90
29547;DHT22;40782;47.264;11.330;2022-11-14T11:28:32;22.40;99.90
29547;DHT22;40782;47.264;11.330;2022-11-14T11:31:01;22.60;99.90
29547;DHT22;40782;47.264;11.330;2022-11-14T11:33:29;22.90;99.90
29547;DHT22;40782;47.264;11.330;2022-11-14T11:35:59;22.90;99.90
29547;DHT22;40782;47.264;11.330;2022-11-14T11:38:30;23.00;99.90
29547;DHT22;40782;47.264;11.330;2022-11-14T11:41:04;23.20;99.90
29547;DHT22;40782;47.264;11.330;2022-11-14T11:43:39;23.00;99.90
29547;DHT22;40782;47.264;11.330;2022-11-14T11:46:14;23.00;99.90
29547;DHT22;40782;47.264;11.330;2022-11-14T11:48:46;22.90;99.90
29547;DHT22;40782;47.264;11.330;2022-11-14T11:51:17;23.00;99.80
29547;DHT22;40782;47.264;11.330;2022-11-14T11:53:50;23.00;97.40
29547;DHT22;40782;47.264;11.330;2022-11-14T11:56:24;22.90;97.10
29547;DHT22;40782;47.264;11.330;2022-11-14T11:58:55;22.80;95.40
29547;DHT22;40782;47.264;11.330;2022-11-14T12:01:24;22.90;94.70
29547;DHT22;40782;47.264;11.330;2022-11-14T12:03:52;23.10;93.50
29547;DHT22;40782;47.264;11.330;2022-11-14T12:06:21;23.40;94.00
29547;DHT22;40782;47.264;11.330;2022-11-14T12:09:05;23.90;92.20
29547;DHT22;40782;47.264;11.330;2022-11-14T12:11:38;24.50;91.70
29547;DHT22;40782;47.264;11.330;2022-11-14T12:14:27;25.20;90.10
29547;DHT22;40782;47.264;11.330;2022-11-14T12:20:37;26.00;96.10
29547;DHT22;40782;47.264;11.330;2022-11-14T12:23:29;26.50;73.90
29547;DHT22;40782;47.264;11.330;2022-11-14T12:26:08;26.50;69.60
29547;DHT22;40782;47.264;11.330;2022-11-14T12:29:02;26.50;65.10
29547;DHT22;40782;47.264;11.330;2022-11-14T12:31:34;26.70;62.60
29547;DHT22;40782;47.264;11.330;2022-11-14T12:34:06;27.00;60.20
29547;DHT22;40782;47.264;11.330;2022-11-14T12:36:39;27.00;57.70
29547;DHT22;40782;47.264;11.330;2022-11-14T12:39:20;26.40;54.70
29547;DHT22;40782;47.264;11.330;2022-11-14T12:41:59;26.30;55.50
29547;DHT22;40782;47.264;11.330;2022-11-14T12:44:35;25.80;54.80
29547;DHT22;40782;47.264;11.330;2022-11-14T12:47:17;25.80;53.40
29547;DHT22;40782;47.264;11.330;2022-11-14T12:50:03;25.30;53.00
29547;DHT22;40782;47.264;11.330;2022-11-14T12:52:44;25.20;52.60
29547;DHT22;40782;47.264;11.330;2022-11-14T13:01:26;25.40;49.20
29547;DHT22;40782;47.264;11.330;2022-11-14T13:04:08;25.30;49.20
29547;DHT22;40782;47.264;11.330;2022-11-14T13:06:45;25.20;49.50
29547;DHT22;40782;47.264;11.330;2022-11-14T13:09:31;25.30;49.40
29547;DHT22;40782;47.264;11.330;2022-11-14T13:12:23;25.10;48.50
29547;DHT22;40782;47.264;11.330;2022-11-14T13:15:26;25.20;48.70
29547;DHT22;40782;47.264;11.330;2022-11-14T13:18:23;25.10;47.70
29547;DHT22;40782;47.264;11.330;2022-11-14T13:21:17;24.80;47.50
29547;DHT22;40782;47.264;11.330;2022-11-14T13:24:03;24.70;49.10
29547;DHT22;40782;47.264;11.330;2022-11-14T13:26:52;25.00;49.30
29547;DHT22;40782;47.264;11.330;2022-11-14T13:29:52;25.00;46.80
29547;DHT22;40782;47.264;11.330;2022-11-14T13:35:49;25.10;48.20
29547;DHT22;40782;47.264;11.330;2022-11-14T13:41:39;25.50;47.30
29547;DHT22;40782;47.264;11.330;2022-11-14T13:47:27;25.60;44.60
29547;DHT22;40782;47.264;11.330;2022-11-14T13:50:02;25.20;44.60
29547;DHT22;40782;47.264;11.330;2022-11-14T13:52:33;25.40;45.80
29547;DHT22;40782;47.264;11.330;2022-11-14T13:55:01;25.30;45.30
29547;DHT22;40782;47.264;11.330;2022-11-14T13:57:39;25.20;44.30
29547;DHT22;40782;47.264;11.330;2022-11-14T14:00:12;24.70;43.30
29547;DHT22;40782;47.264;11.330;2022-11-14T14:03:00;24.20;44.30
29547;DHT22;40782;47.264;11.330;2022-11-14T14:05:43;24.30;48.10
29547;DHT22;40782;47.264;11.330;2022-11-14T14:08:25;24.50;49.20
29547;DHT22;40782;47.264;11.330;2022-11-14T14:11:05;24.60;48.70
29547;DHT22;40782;47.264;11.330;2022-11-14T14:13:47;24.50;47.90
29547;DHT22;40782;47.264;11.330;2022-11-14T14:16:33;24.30;48.30
29547;DHT22;40782;47.264;11.330;2022-11-14T14:19:10;24.20;47.90
29547;DHT22;40782;47.264;11.330;2022-11-14T14:21:43;24.20;46.50
29547;DHT22;40782;47.264;11.330;2022-11-14T14:24:23;24.20;44.80
29547;DHT22;40782;47.264;11.330;2022-11-14T14:27:02;24.20;45.10
29547;DHT22;40782;47.264;11.330;2022-11-14T14:29:38;24.10;45.10
29547;DHT22;40782;47.264;11.330;2022-11-14T14:32:11;23.80;44.60
29547;DHT22;40782;47.264;11.330;2022-11-14T14:34:38;23.70;44.80
29547;DHT22;40782;47.264;11.330;2022-11-14T14:37:17;23.60;45.70
29547;DHT22;40782;47.264;11.330;2022-11-14T14:39:57;23.50;48.40
29547;DHT22;40782;47.264;11.330;2022-11-14T14:42:25;23.60;44.50
29547;DHT22;40782;47.264;11.330;2022-11-14T14:44:54;23.40;44.70
29547;DHT22;40782;47.264;11.330;2022-11-14T14:47:33;23.40;44.90
29547;DHT22;40782;47.264;11.330;2022-11-14T14:50:05;23.30;46.10
29547;DHT22;40782;47.264;11.330;2022-11-14T14:52:35;23.20;50.30
29547;DHT22;40782;47.264;11.330;2022-11-14T14:55:15;23.00;48.60
29547;DHT22;40782;47.264;11.330;2022-11-14T14:57:44;22.80;50.80
29547;DHT22;40782;47.264;11.330;2022-11-14T15:00:18;22.40;53.20
29547;DHT22;40782;47.264;11.330;2022-11-14T15:02:45;21.90;56.50
29547;DHT22;40782;47.264;11.330;2022-11-14T15:05:21;21.40;58.60
29547;DHT22;40782;47.264;11.330;2022-11-14T15:07:49;20.80;60.40
29547;DHT22;40782;47.264;11.330;2022-11-14T15:10:21;20.30;68.90
29547;DHT22;40782;47.264;11.330;2022-11-14T15:12:50;19.70;70.40
29547;DHT22;40782;47.264;11.330;2022-11-14T15:15:20;19.20;70.10
29547;DHT22;40782;47.264;11.330;2022-11-14T15:17:48;18.70;72.80
29547;DHT22;40782;47.264;11.330;2022-11-14T15:20:24;18.40;76.30
29547;DHT22;40782;47.264;11.330;2022-11-14T15:23:05;18.00;76.70
29547;DHT22;40782;47.264;11.330;2022-11-14T15:25:33;17.40;79.10
29547;DHT22;40782;47.264;11.330;2022-11-14T15:28:01;17.00;79.00
29547;DHT22;40782;47.264;11.330;2022-11-14T15:30:30;16.70;79.30
29547;DHT22;40782;47.264;11.330;2022-11-14T15:33:00;16.40;81.00
29547;DHT22;40782;47.264;11.330;2022-11-14T15:35:30;16.10;85.30
29547;DHT22;40782;47.264;11.330;2022-11-14T15:38:04;15.80;86.50
29547;DHT22;40782;47.264;11.330;2022-11-14T15:40:36;15.50;89.30
29547;DHT22;40782;47.264;11.330;2022-11-14T15:43:36;15.30;90.30
29547;DHT22;40782;47.264;11.330;2022-11-14T15:46:04;15.10;91.20
29547;DHT22;40782;47.264;11.330;2022-11-14T15:48:31;14.90;92.80
29547;DHT22;40782;47.264;11.330;2022-11-14T15:50:58;14.70;92.90
29547;DHT22;40782;47.264;11.330;2022-11-14T15:53:27;14.50;94.00
29547;DHT22;40782;47.264;11.330;2022-11-14T15:55:57;14.40;94.50
29547;DHT22;40782;47.264;11.330;2022-11-14T15:58:24;14.30;95.80
29547;DHT22;40782;47.264;11.330;2022-11-14T16:00:52;14.20;96.70
29547;DHT22;40782;47.264;11.330;2022-11-14T16:03:21;14.00;97.40
29547;DHT22;40782;47.264;11.330;2022-11-14T16:05:49;13.90;99.10
29547;DHT22;40782;47.264;11.330;2022-11-14T16:08:16;13.80;98.70
29547;DHT22;40782;47.264;11.330;2022-11-14T16:10:44;13.70;99.10
29547;DHT22;40782;47.264;11.330;2022-11-14T16:13:12;13.60;99.90
29547;DHT22;40782;47.264;11.330;2022-11-14T16:15:39;13.50;99.90